Time;durP1;ratioP1;P1;durP2;ratioP2;P2;SDS_P1;SDS_P2;PMS_P1;PMS_P2;Temp;Humidity;BMP_temperature;BMP_pressure;BME280_temperature;BME280_humidity;BME280_pressure;Samples;Min_cycle;Max_cycle;Signal;HPM_P1;HPM_P2
2023/04/15 00:00:21;;;;;;;8.32;3.42;;;;;;;;;;5038119;28;20045;-56
2023/04/15 00:02:47;;;;;;;3.10;2.10;;;;;;;;;;5037455;28;20055;-56
2023/04/15 00:05:14;;;;;;;4.80;2.65;;;;;;;;;;5035607;28;20045;-56
2023/04/15 00:07:41;;;;;;;8.13;2.83;;;;;;;;;;5036880;28;20040;-57
2023/04/15 00:10:08;;;;;;;5.10;2.53;;;;;;;;;;5032768;28;20486;-57
2023/04/15 00:12:34;;;;;;;4.07;2.15;;;;;;;;;;5041699;28;20040;-56
2023/04/15 00:15:00;;;;;;;8.63;2.00;;;;;;;;;;5034387;28;20028;-56
2023/04/15 00:17:26;;;;;;;5.25;2.22;;;;;;;;;;5029671;28;20052;-56
2023/04/15 00:19:53;;;;;;;4.25;1.92;;;;;;;;;;5033669;28;20048;-57
2023/04/15 00:22:19;;;;;;;7.30;1.90;;;;;;;;;;5034700;28;20029;-56
2023/04/15 00:24:45;;;;;;;3.72;2.30;;;;;;;;;;5043336;28;20042;-56
2023/04/15 00:27:11;;;;;;;3.45;1.88;;;;;;;;;;5045226;28;20509;-56
2023/04/15 00:29:38;;;;;;;3.05;2.03;;;;;;;;;;5043325;28;20051;-56
2023/04/15 00:32:04;;;;;;;5.85;2.63;;;;;;;;;;5039477;28;20041;-57
2023/04/15 00:34:30;;;;;;;7.72;2.63;;;;;;;;;;5033085;28;20037;-57
2023/04/15 00:36:56;;;;;;;5.90;2.38;;;;;;;;;;5044520;28;20483;-57
2023/04/15 00:39:22;;;;;;;5.88;2.35;;;;;;;;;;5041398;28;20036;-57
2023/04/15 00:41:49;;;;;;;6.00;2.17;;;;;;;;;;5039577;28;20032;-57
2023/04/15 00:44:15;;;;;;;2.55;2.28;;;;;;;;;;5036821;28;20326;-57
2023/04/15 00:46:43;;;;;;;4.65;2.25;;;;;;;;;;5037497;28;20056;-56
2023/04/15 00:49:11;;;;;;;7.68;2.35;;;;;;;;;;5038609;28;20402;-57
2023/04/15 00:51:38;;;;;;;6.53;2.28;;;;;;;;;;5042283;28;20032;-56
2023/04/15 00:54:05;;;;;;;3.30;1.98;;;;;;;;;;5039115;28;20040;-56
2023/04/15 00:56:35;;;;;;;4.20;2.00;;;;;;;;;;5036264;28;20033;-56
2023/04/15 00:59:02;;;;;;;2.72;1.70;;;;;;;;;;5035149;28;20053;-57
2023/04/15 01:01:28;;;;;;;5.43;1.92;;;;;;;;;;5030116;28;20482;-56
2023/04/15 01:03:59;;;;;;;2.95;2.03;;;;;;;;;;5030991;28;20384;-56
2023/04/15 01:06:27;;;;;;;3.13;1.90;;;;;;;;;;5029728;28;20057;-56
2023/04/15 01:08:53;;;;;;;4.22;2.00;;;;;;;;;;5033023;28;20033;-55
2023/04/15 01:11:19;;;;;;;4.07;1.95;;;;;;;;;;5031517;28;20037;-57
2023/04/15 01:13:46;;;;;;;5.10;2.03;;;;;;;;;;5036097;28;20037;-57
2023/04/15 01:16:13;;;;;;;2.72;1.80;;;;;;;;;;5021322;28;20422;-56
2023/04/15 01:18:40;;;;;;;3.65;1.92;;;;;;;;;;5038130;28;20040;-57
2023/04/15 01:21:06;;;;;;;3.17;2.08;;;;;;;;;;5035231;28;20029;-57
2023/04/15 01:23:38;;;;;;;2.75;2.05;;;;;;;;;;5043185;28;20036;-56
2023/04/15 01:26:09;;;;;;;3.38;2.00;;;;;;;;;;5043384;28;20048;-56
2023/04/15 01:28:36;;;;;;;2.90;1.80;;;;;;;;;;5030706;28;20621;-56
2023/04/15 01:31:08;;;;;;;5.47;1.73;;;;;;;;;;5037563;28;20036;-56
2023/04/15 01:33:37;;;;;;;3.10;2.00;;;;;;;;;;5041398;28;20445;-56
2023/04/15 01:36:22;;;;;;;4.40;2.00;;;;;;;;;;5040117;28;20041;-57
2023/04/15 01:38:51;;;;;;;6.85;3.55;;;;;;;;;;5043331;28;20052;-57
2023/04/15 01:41:27;;;;;;;5.32;2.70;;;;;;;;;;5035252;28;20033;-57
2023/04/15 01:43:54;;;;;;;8.30;2.63;;;;;;;;;;5031893;28;20045;-57
2023/04/15 01:46:22;;;;;;;2.28;1.90;;;;;;;;;;5038373;28;20037;-56
2023/04/15 01:48:49;;;;;;;5.07;2.13;;;;;;;;;;5037270;28;20048;-57
2023/04/15 01:51:17;;;;;;;3.03;2.20;;;;;;;;;;5033739;28;20052;-57
2023/04/15 01:53:44;;;;;;;7.68;2.13;;;;;;;;;;5035243;28;20045;-57
2023/04/15 01:56:12;;;;;;;3.17;1.60;;;;;;;;;;5040061;28;20056;-57
2023/04/15 01:58:39;;;;;;;5.10;1.90;;;;;;;;;;5034117;28;20646;-57
2023/04/15 02:01:09;;;;;;;4.53;2.05;;;;;;;;;;5042892;28;20064;-56
2023/04/15 02:03:38;;;;;;;8.40;2.40;;;;;;;;;;5038979;28;20049;-57
2023/04/15 02:06:05;;;;;;;4.37;1.93;;;;;;;;;;5033117;28;20056;-57
2023/04/15 02:08:33;;;;;;;6.35;2.00;;;;;;;;;;5031278;28;20049;-56
2023/04/15 02:11:00;;;;;;;4.95;2.42;;;;;;;;;;5041852;28;20051;-56
2023/04/15 02:13:29;;;;;;;4.15;2.10;;;;;;;;;;5035232;28;20511;-56
2023/04/15 02:15:58;;;;;;;2.25;1.60;;;;;;;;;;5038683;28;20422;-56
2023/04/15 02:18:26;;;;;;;4.30;2.10;;;;;;;;;;5042568;28;20057;-57
2023/04/15 02:20:54;;;;;;;4.57;2.38;;;;;;;;;;5042784;28;20052;-56
2023/04/15 02:23:21;;;;;;;3.13;1.88;;;;;;;;;;5044429;28;20041;-56
2023/04/15 02:25:49;;;;;;;3.72;1.90;;;;;;;;;;5045887;28;20049;-56
2023/04/15 02:28:16;;;;;;;3.15;2.25;;;;;;;;;;5046365;28;20045;-56
2023/04/15 02:30:49;;;;;;;4.88;2.28;;;;;;;;;;5040764;28;20053;-57
2023/04/15 02:33:17;;;;;;;3.50;2.10;;;;;;;;;;5038556;28;20053;-56
2023/04/15 02:35:44;;;;;;;3.65;2.25;;;;;;;;;;5037000;28;20045;-57
2023/04/15 02:38:13;;;;;;;2.97;2.00;;;;;;;;;;5043250;28;20049;-57
2023/04/15 02:40:41;;;;;;;8.05;2.50;;;;;;;;;;5043846;28;20604;-56
2023/04/15 02:43:08;;;;;;;4.40;1.92;;;;;;;;;;5046834;28;20045;-58
2023/04/15 02:45:36;;;;;;;4.53;2.47;;;;;;;;;;5040498;28;20038;-57
2023/04/15 02:48:05;;;;;;;6.30;2.60;;;;;;;;;;5039873;28;20040;-56
2023/04/15 02:50:33;;;;;;;5.70;2.40;;;;;;;;;;5040849;28;20033;-57
2023/04/15 02:53:01;;;;;;;7.07;2.72;;;;;;;;;;5039573;28;20048;-56
2023/04/15 02:55:29;;;;;;;4.82;2.42;;;;;;;;;;5041743;28;20045;-56
2023/04/15 02:57:59;;;;;;;6.15;2.40;;;;;;;;;;5036616;28;20124;-57
2023/04/15 03:00:27;;;;;;;5.60;2.10;;;;;;;;;;5031181;28;20037;-57
2023/04/15 03:03:03;;;;;;;4.35;2.25;;;;;;;;;;5033688;28;20052;-55
2023/04/15 03:05:30;;;;;;;6.05;2.58;;;;;;;;;;5030432;28;20045;-56
2023/04/15 03:07:59;;;;;;;4.47;2.40;;;;;;;;;;5036239;28;20053;-56
2023/04/15 03:10:27;;;;;;;6.85;2.35;;;;;;;;;;5034229;28;20047;-56
2023/04/15 03:12:54;;;;;;;5.20;2.25;;;;;;;;;;5035656;28;20422;-57
2023/04/15 03:15:23;;;;;;;4.60;2.17;;;;;;;;;;5043614;28;20045;-57
2023/04/15 03:17:53;;;;;;;5.50;2.15;;;;;;;;;;5047451;28;20072;-55
2023/04/15 03:20:20;;;;;;;4.10;2.40;;;;;;;;;;5047870;28;20049;-58
2023/04/15 03:22:49;;;;;;;6.78;2.20;;;;;;;;;;5037833;28;20048;-57
2023/04/15 03:25:16;;;;;;;5.90;2.53;;;;;;;;;;5032761;28;20056;-57
2023/04/15 03:27:44;;;;;;;3.28;2.20;;;;;;;;;;5039350;28;20056;-56
2023/04/15 03:30:13;;;;;;;3.90;2.40;;;;;;;;;;5040055;28;20044;-57
2023/04/15 03:32:41;;;;;;;4.88;2.28;;;;;;;;;;5041201;28;20067;-56
2023/04/15 03:35:09;;;;;;;5.18;2.10;;;;;;;;;;5046223;28;20399;-56
2023/04/15 03:37:36;;;;;;;4.80;1.85;;;;;;;;;;5041118;28;20061;-57
2023/04/15 03:40:04;;;;;;;3.50;2.20;;;;;;;;;;5037571;28;20498;-56
2023/04/15 03:42:32;;;;;;;3.13;2.10;;;;;;;;;;5033518;28;20044;-57
2023/04/15 03:44:59;;;;;;;5.10;2.35;;;;;;;;;;5045463;28;20163;-57
2023/04/15 03:47:26;;;;;;;3.05;1.95;;;;;;;;;;5035969;28;20552;-57
2023/04/15 03:49:54;;;;;;;4.45;2.08;;;;;;;;;;5039097;28;20044;-56
2023/04/15 03:52:21;;;;;;;3.20;2.00;;;;;;;;;;5039648;28;20068;-57
2023/04/15 03:54:49;;;;;;;4.35;2.22;;;;;;;;;;5042840;28;20642;-57
2023/04/15 03:57:16;;;;;;;4.20;2.50;;;;;;;;;;5040015;28;20116;-56
2023/04/15 03:59:44;;;;;;;5.65;2.60;;;;;;;;;;5038022;28;20045;-56
2023/04/15 04:02:11;;;;;;;5.93;2.40;;;;;;;;;;5034736;28;20045;-56
2023/04/15 04:04:38;;;;;;;4.20;2.30;;;;;;;;;;5038547;28;20040;-57
2023/04/15 04:07:06;;;;;;;3.45;2.17;;;;;;;;;;5030376;28;20045;-57
2023/04/15 04:09:33;;;;;;;4.70;2.58;;;;;;;;;;5036441;28;20038;-57
2023/04/15 04:12:01;;;;;;;4.22;2.95;;;;;;;;;;5034829;28;20040;-57
2023/04/15 04:14:28;;;;;;;9.52;2.63;;;;;;;;;;5040251;28;20041;-57
2023/04/15 04:16:56;;;;;;;5.03;2.30;;;;;;;;;;5038628;28;20048;-55
2023/04/15 04:19:23;;;;;;;3.97;2.50;;;;;;;;;;5042295;28;20041;-56
2023/04/15 04:21:51;;;;;;;6.45;2.47;;;;;;;;;;5043493;28;20068;-56
2023/04/15 04:24:18;;;;;;;7.22;2.35;;;;;;;;;;5041885;28;20044;-56
2023/04/15 04:26:46;;;;;;;9.25;3.10;;;;;;;;;;5042621;28;20120;-56
2023/04/15 04:29:14;;;;;;;3.90;2.30;;;;;;;;;;5042168;28;20041;-57
2023/04/15 04:31:41;;;;;;;6.35;2.10;;;;;;;;;;5039764;28;20052;-55
2023/04/15 04:34:08;;;;;;;5.25;2.50;;;;;;;;;;5039550;28;20049;-56
2023/04/15 04:36:36;;;;;;;3.45;2.22;;;;;;;;;;5041590;28;20060;-56
2023/04/15 04:39:03;;;;;;;4.28;2.60;;;;;;;;;;5040667;28;20422;-56
2023/04/15 04:41:31;;;;;;;5.63;2.85;;;;;;;;;;5040249;28;20049;-57
2023/04/15 04:43:58;;;;;;;7.75;2.90;;;;;;;;;;5035639;28;20060;-56
2023/04/15 04:46:26;;;;;;;2.95;2.20;;;;;;;;;;5036814;28;20427;-57
2023/04/15 04:48:53;;;;;;;5.70;2.05;;;;;;;;;;5042900;28;20064;-56
2023/04/15 04:51:21;;;;;;;3.17;2.28;;;;;;;;;;5044762;28;20048;-57
2023/04/15 04:53:48;;;;;;;4.60;2.60;;;;;;;;;;5038518;28;20041;-56
2023/04/15 04:56:16;;;;;;;3.47;2.53;;;;;;;;;;5038651;28;20037;-56
2023/04/15 04:58:43;;;;;;;6.85;3.22;;;;;;;;;;5038199;28;20037;-58
2023/04/15 05:01:11;;;;;;;8.02;3.25;;;;;;;;;;5034637;28;20048;-57
2023/04/15 05:03:39;;;;;;;4.43;2.65;;;;;;;;;;5040928;28;20056;-57
2023/04/15 05:06:07;;;;;;;3.80;2.50;;;;;;;;;;5029019;28;20045;-57
2023/04/15 05:08:35;;;;;;;6.15;3.40;;;;;;;;;;5038313;28;20047;-57
2023/04/15 05:11:02;;;;;;;3.70;2.40;;;;;;;;;;5039499;28;20045;-57
2023/04/15 05:13:30;;;;;;;6.97;3.10;;;;;;;;;;5035136;28;20078;-57
2023/04/15 05:15:57;;;;;;;4.03;2.60;;;;;;;;;;5042515;28;20048;-56
2023/04/15 05:18:25;;;;;;;6.22;2.80;;;;;;;;;;5041153;28;20414;-56
2023/04/15 05:20:52;;;;;;;5.53;2.78;;;;;;;;;;5045729;28;20557;-58
2023/04/15 05:23:20;;;;;;;3.70;2.88;;;;;;;;;;5046109;28;20049;-57
2023/04/15 05:25:47;;;;;;;5.82;3.33;;;;;;;;;;5042341;28;20412;-57
2023/04/15 05:28:15;;;;;;;5.95;3.08;;;;;;;;;;5039960;28;20046;-57
2023/04/15 05:30:42;;;;;;;6.93;3.55;;;;;;;;;;5038768;28;20046;-56
2023/04/15 05:33:10;;;;;;;6.57;2.92;;;;;;;;;;5044662;28;20045;-57
2023/04/15 05:35:37;;;;;;;6.82;3.22;;;;;;;;;;5043224;28;20042;-57
2023/04/15 05:38:05;;;;;;;7.35;3.60;;;;;;;;;;5045868;28;20045;-57
2023/04/15 05:40:32;;;;;;;6.20;3.33;;;;;;;;;;5043639;28;20037;-56
2023/04/15 05:43:00;;;;;;;5.05;3.10;;;;;;;;;;5043323;28;20419;-56
2023/04/15 05:45:27;;;;;;;7.75;3.25;;;;;;;;;;5042249;28;20515;-55
2023/04/15 05:47:55;;;;;;;6.28;3.53;;;;;;;;;;5037792;28;20419;-55
2023/04/15 05:50:22;;;;;;;8.05;3.55;;;;;;;;;;5040903;28;20042;-56
2023/04/15 05:52:50;;;;;;;4.57;3.50;;;;;;;;;;5043340;28;20049;-56
2023/04/15 05:55:17;;;;;;;10.73;3.00;;;;;;;;;;5034528;28;20049;-58
2023/04/15 05:57:45;;;;;;;5.40;2.90;;;;;;;;;;5035830;28;20407;-55
2023/04/15 06:00:14;;;;;;;4.40;2.75;;;;;;;;;;5035821;28;20052;-56
2023/04/15 06:02:42;;;;;;;5.90;3.25;;;;;;;;;;5034562;28;20048;-56
2023/04/15 06:05:10;;;;;;;6.35;3.60;;;;;;;;;;5042161;28;20056;-57
2023/04/15 06:07:38;;;;;;;8.63;3.28;;;;;;;;;;5034590;28;20056;-57
2023/04/15 06:10:06;;;;;;;5.30;3.47;;;;;;;;;;5043510;28;20045;-56
2023/04/15 06:12:34;;;;;;;7.60;3.50;;;;;;;;;;5041226;28;20432;-57
2023/04/15 06:15:02;;;;;;;9.80;3.17;;;;;;;;;;5040319;28;20045;-57
2023/04/15 06:17:30;;;;;;;4.68;3.25;;;;;;;;;;5049405;28;20041;-56
2023/04/15 06:19:57;;;;;;;5.95;3.50;;;;;;;;;;5044710;28;20048;-57
2023/04/15 06:22:25;;;;;;;7.88;3.45;;;;;;;;;;5038935;28;20054;-57
2023/04/15 06:24:53;;;;;;;9.60;4.40;;;;;;;;;;5036801;28;20057;-57
2023/04/15 06:27:21;;;;;;;8.50;3.90;;;;;;;;;;5041155;28;20064;-58
2023/04/15 06:29:49;;;;;;;9.52;3.97;;;;;;;;;;5043083;28;20053;-56
2023/04/15 06:32:16;;;;;;;9.15;4.25;;;;;;;;;;5049030;28;20121;-58
2023/04/15 06:34:43;;;;;;;17.00;6.47;;;;;;;;;;5046083;28;20063;-58
2023/04/15 06:37:15;;;;;;;13.98;5.88;;;;;;;;;;5038773;28;20443;-57
2023/04/15 06:39:43;;;;;;;14.88;5.25;;;;;;;;;;5040034;28;20522;-57
2023/04/15 06:42:11;;;;;;;12.38;6.10;;;;;;;;;;5039361;28;20054;-57
2023/04/15 06:44:38;;;;;;;16.50;5.45;;;;;;;;;;5043659;28;20048;-57
2023/04/15 06:47:06;;;;;;;12.38;6.15;;;;;;;;;;5044516;28;20038;-57
2023/04/15 06:49:34;;;;;;;14.05;5.93;;;;;;;;;;5039454;28;20474;-57
2023/04/15 06:52:01;;;;;;;14.82;7.05;;;;;;;;;;5046795;28;20052;-57
2023/04/15 06:54:29;;;;;;;14.45;7.35;;;;;;;;;;5046804;28;20064;-56
2023/04/15 06:56:56;;;;;;;13.80;7.20;;;;;;;;;;5039188;28;20041;-56
2023/04/15 06:59:24;;;;;;;15.75;7.70;;;;;;;;;;5037680;28;20479;-56
2023/04/15 07:01:51;;;;;;;18.20;7.72;;;;;;;;;;5032600;28;20037;-56
2023/04/15 07:04:19;;;;;;;13.93;7.38;;;;;;;;;;5037132;28;20053;-56
2023/04/15 07:06:47;;;;;;;17.38;7.88;;;;;;;;;;5042440;28;20051;-57
2023/04/15 07:09:15;;;;;;;32.65;10.77;;;;;;;;;;5039619;28;20419;-56
2023/04/15 07:11:42;;;;;;;56.55;15.80;;;;;;;;;;5033956;28;20040;-58
2023/04/15 07:14:09;;;;;;;70.50;16.50;;;;;;;;;;5037295;28;20055;-58
2023/04/15 07:16:37;;;;;;;52.83;16.38;;;;;;;;;;5043937;28;20052;-57
2023/04/15 07:19:04;;;;;;;50.28;14.07;;;;;;;;;;5034596;28;20400;-57
2023/04/15 07:21:32;;;;;;;28.52;12.13;;;;;;;;;;5031748;28;20057;-57
2023/04/15 07:23:59;;;;;;;29.70;9.77;;;;;;;;;;5033148;28;20043;-57
2023/04/15 07:26:27;;;;;;;26.17;10.63;;;;;;;;;;5038517;28;20044;-57
2023/04/15 07:28:55;;;;;;;29.35;13.75;;;;;;;;;;5032745;28;20049;-58
2023/04/15 07:31:22;;;;;;;30.02;12.98;;;;;;;;;;5036627;28;20041;-56
2023/04/15 07:33:52;;;;;;;26.88;9.60;;;;;;;;;;5039075;28;20033;-56
2023/04/15 07:36:19;;;;;;;22.60;8.73;;;;;;;;;;5038548;28;20507;-57
2023/04/15 07:38:47;;;;;;;21.40;9.65;;;;;;;;;;5037799;28;20045;-57
2023/04/15 07:41:15;;;;;;;23.90;9.27;;;;;;;;;;5041144;28;20506;-57
2023/04/15 07:43:43;;;;;;;23.30;9.77;;;;;;;;;;5039096;28;20435;-58
2023/04/15 07:46:11;;;;;;;16.90;9.07;;;;;;;;;;5036277;28;20049;-57
2023/04/15 07:48:38;;;;;;;23.60;8.48;;;;;;;;;;5040621;28;20052;-57
2023/04/15 07:51:05;;;;;;;19.27;8.43;;;;;;;;;;5039167;28;20049;-58
2023/04/15 07:53:33;;;;;;;24.70;9.38;;;;;;;;;;5042854;28;20033;-57
2023/04/15 07:56:00;;;;;;;20.45;7.80;;;;;;;;;;5037786;28;20060;-58
2023/04/15 07:58:28;;;;;;;19.27;7.72;;;;;;;;;;5043376;28;20048;-56
2023/04/15 08:00:56;;;;;;;14.93;6.80;;;;;;;;;;5033301;28;20050;-56
2023/04/15 08:03:24;;;;;;;17.17;7.57;;;;;;;;;;5028606;28;20061;-56
2023/04/15 08:05:51;;;;;;;16.15;6.03;;;;;;;;;;5044094;28;20037;-57
2023/04/15 08:08:18;;;;;;;15.70;7.28;;;;;;;;;;5041708;28;20049;-57
2023/04/15 08:10:46;;;;;;;14.20;7.05;;;;;;;;;;5032163;28;20045;-57
2023/04/15 08:13:13;;;;;;;21.73;8.32;;;;;;;;;;5035616;28;20049;-56
2023/04/15 08:15:41;;;;;;;16.60;8.07;;;;;;;;;;5034929;28;20045;-57
2023/04/15 08:18:08;;;;;;;17.05;7.50;;;;;;;;;;5040976;28;20411;-57
2023/04/15 08:20:36;;;;;;;12.15;6.03;;;;;;;;;;5040305;28;20041;-57
2023/04/15 08:23:03;;;;;;;18.83;6.32;;;;;;;;;;5036689;28;20040;-58
2023/04/15 08:25:31;;;;;;;12.15;5.47;;;;;;;;;;5037753;28;20041;-57
2023/04/15 08:28:03;;;;;;;15.23;6.10;;;;;;;;;;5041777;28;20458;-57
2023/04/15 08:30:30;;;;;;;14.80;5.93;;;;;;;;;;5036715;28;20041;-57
2023/04/15 08:32:58;;;;;;;13.02;5.55;;;;;;;;;;5038591;28;20056;-56
2023/04/15 08:35:26;;;;;;;10.60;4.72;;;;;;;;;;5041240;28;20036;-57
2023/04/15 08:37:53;;;;;;;11.23;4.82;;;;;;;;;;5042257;28;20053;-58
2023/04/15 08:40:23;;;;;;;13.82;5.72;;;;;;;;;;5037277;28;20053;-57
2023/04/15 08:42:52;;;;;;;;;;;;;;;;;;5040273;28;20052;-58
2023/04/15 08:45:20;;;;;;;18.88;6.43;;;;;;;;;;5039948;28;19917;-57
2023/04/15 08:47:54;;;;;;;17.85;6.43;;;;;;;;;;5044573;28;20425;-58
2023/04/15 08:50:22;;;;;;;15.88;7.50;;;;;;;;;;5039570;28;20056;-58
2023/04/15 08:52:54;;;;;;;13.95;6.15;;;;;;;;;;5036868;28;20044;-58
2023/04/15 08:55:22;;;;;;;11.48;4.40;;;;;;;;;;5035092;28;20048;-58
2023/04/15 08:57:50;;;;;;;12.70;4.00;;;;;;;;;;5042033;28;20053;-57
2023/04/15 09:00:18;;;;;;;9.93;3.80;;;;;;;;;;5032079;28;20037;-58
2023/04/15 09:02:45;;;;;;;8.38;3.60;;;;;;;;;;5030732;28;20045;-59
2023/04/15 09:05:13;;;;;;;9.75;3.72;;;;;;;;;;5041231;28;20064;-58
2023/04/15 09:07:40;;;;;;;6.50;3.53;;;;;;;;;;5045266;28;20053;-57
2023/04/15 09:10:09;;;;;;;8.75;3.47;;;;;;;;;;5047139;28;20399;-58
2023/04/15 09:12:36;;;;;;;8.63;3.47;;;;;;;;;;5046604;28;20422;-57
2023/04/15 09:15:04;;;;;;;10.32;3.55;;;;;;;;;;5048267;28;20034;-58
2023/04/15 09:17:33;;;;;;;13.85;4.55;;;;;;;;;;5039908;28;20049;-58
2023/04/15 09:20:17;;;;;;;7.60;3.40;;;;;;;;;;5041095;28;20406;-58
2023/04/15 09:22:47;;;;;;;7.57;3.13;;;;;;;;;;5041503;28;20299;-58
2023/04/15 09:25:17;;;;;;;7.43;3.15;;;;;;;;;;5042936;28;20507;-58
2023/04/15 09:27:52;;;;;;;8.68;3.20;;;;;;;;;;5042808;28;20060;-58
2023/04/15 09:30:20;;;;;;;15.18;3.15;;;;;;;;;;5038926;28;20048;-59
2023/04/15 09:32:58;;;;;;;7.90;3.50;;;;;;;;;;5044447;28;20049;-59
2023/04/15 09:35:26;;;;;;;7.75;3.03;;;;;;;;;;5046032;28;20049;-59
2023/04/15 09:38:02;;;;;;;6.68;3.15;;;;;;;;;;5043234;28;20045;-59
2023/04/15 09:40:33;;;;;;;8.85;3.40;;;;;;;;;;5042862;28;20048;-58
2023/04/15 09:43:03;;;;;;;13.32;3.22;;;;;;;;;;5041656;28;20052;-59
2023/04/15 09:45:32;;;;;;;8.32;3.15;;;;;;;;;;5041978;28;20052;-59
2023/04/15 09:48:16;;;;;;;9.87;3.67;;;;;;;;;;5046083;28;20506;-57
2023/04/15 09:50:43;;;;;;;6.22;3.10;;;;;;;;;;5040677;28;20045;-58
2023/04/15 09:53:21;;;;;;;5.18;3.20;;;;;;;;;;5039343;28;20048;-58
2023/04/15 09:55:50;;;;;;;7.75;4.28;;;;;;;;;;5039123;28;20503;-58
2023/04/15 09:58:19;;;;;;;8.95;4.30;;;;;;;;;;5040599;28;20037;-58
2023/04/15 10:00:48;;;;;;;6.22;3.63;;;;;;;;;;5031475;28;20064;-58
2023/04/15 10:03:33;;;;;;;6.05;3.30;;;;;;;;;;5036911;28;20049;-58
2023/04/15 10:06:01;;;;;;;6.60;3.50;;;;;;;;;;5038619;28;20049;-58
2023/04/15 10:08:31;;;;;;;10.73;4.55;;;;;;;;;;5046868;28;20060;-57
2023/04/15 10:11:03;;;;;;;9.43;3.78;;;;;;;;;;5042772;28;20045;-58
2023/04/15 10:13:36;;;;;;;10.15;3.55;;;;;;;;;;5037226;28;20030;-58
2023/04/15 10:16:05;;;;;;;6.68;3.58;;;;;;;;;;5044390;28;20040;-57
2023/04/15 10:18:36;;;;;;;7.22;3.90;;;;;;;;;;5040242;28;20045;-57
2023/04/15 10:21:04;;;;;;;7.45;4.10;;;;;;;;;;5041453;28;20033;-58
2023/04/15 10:23:32;;;;;;;8.15;3.63;;;;;;;;;;5043390;28;20041;-58
2023/04/15 10:26:01;;;;;;;9.05;3.95;;;;;;;;;;5043879;28;20043;-57
2023/04/15 10:28:29;;;;;;;8.00;4.00;;;;;;;;;;5042360;28;20408;-58
2023/04/15 10:30:58;;;;;;;7.05;3.78;;;;;;;;;;5042330;28;20053;-57
2023/04/15 10:33:26;;;;;;;6.55;4.43;;;;;;;;;;5041764;28;20397;-59
2023/04/15 10:35:54;;;;;;;6.75;4.03;;;;;;;;;;5039520;28;20053;-58
2023/04/15 10:38:42;;;;;;;8.20;4.38;;;;;;;;;;5037124;28;20041;-59
2023/04/15 10:41:19;;;;;;;8.77;4.60;;;;;;;;;;5039638;28;20411;-59
2023/04/15 10:43:54;;;;;;;7.95;4.32;;;;;;;;;;5042582;28;20042;-58
2023/04/15 10:46:24;;;;;;;9.63;4.32;;;;;;;;;;5041536;28;20518;-58
2023/04/15 10:48:52;;;;;;;8.93;4.40;;;;;;;;;;5037898;28;20052;-59
2023/04/15 10:51:28;;;;;;;8.68;4.25;;;;;;;;;;5039633;28;20514;-58
2023/04/15 10:53:59;;;;;;;8.00;3.85;;;;;;;;;;5045769;28;20523;-58
2023/04/15 10:56:28;;;;;;;8.57;4.22;;;;;;;;;;5038095;28;20530;-58
2023/04/15 10:58:58;;;;;;;6.88;3.83;;;;;;;;;;5033199;28;20045;-59
2023/04/15 11:01:55;;;;;;;8.85;4.82;;;;;;;;;;5041960;28;20053;-59
2023/04/15 11:04:57;;;;;;;9.45;4.50;;;;;;;;;;5036169;28;20037;-59
2023/04/15 11:07:33;;;;;;;11.57;4.88;;;;;;;;;;5041212;28;20498;-59
2023/04/15 11:10:01;;;;;;;9.32;4.30;;;;;;;;;;5042028;28;20499;-58
2023/04/15 11:12:35;;;;;;;8.63;3.90;;;;;;;;;;5042469;28;20048;-59
2023/04/15 11:15:25;;;;;;;18.77;7.18;;;;;;;;;;5037081;28;20499;-58
2023/04/15 11:17:52;;;;;;;;;;;;;;;;;;5044145;28;20042;-59
2023/04/15 11:20:20;;;;;;;26.00;14.32;;;;;;;;;;5045813;28;19912;-59
2023/04/15 11:22:51;;;;;;;16.85;8.23;;;;;;;;;;5046869;28;20052;-60
2023/04/15 11:25:26;;;;;;;8.77;5.15;;;;;;;;;;5041552;28;20050;-59
2023/04/15 11:27:54;;;;;;;6.65;3.20;;;;;;;;;;5034940;28;20058;-58
2023/04/15 11:30:24;;;;;;;6.18;2.88;;;;;;;;;;5035876;28;20045;-59
2023/04/15 11:32:54;;;;;;;;;;;;;;;;;;5042508;28;20049;-59
2023/04/15 11:35:21;;;;;;;8.50;4.35;;;;;;;;;;5042613;28;19951;-60
2023/04/15 11:37:49;;;;;;;6.60;4.45;;;;;;;;;;5044968;28;20400;-58
2023/04/15 11:40:22;;;;;;;6.70;4.43;;;;;;;;;;5043498;28;20530;-58
2023/04/15 11:43:07;;;;;;;12.13;6.78;;;;;;;;;;5040031;28;20049;-59
2023/04/15 11:45:36;;;;;;;8.00;4.70;;;;;;;;;;5037169;28;20049;-58
2023/04/15 11:48:08;;;;;;;6.40;4.45;;;;;;;;;;5039762;28;20052;-58
2023/04/15 11:50:39;;;;;;;10.77;5.00;;;;;;;;;;5039567;28;20052;-60
2023/04/15 11:53:07;;;;;;;7.18;3.20;;;;;;;;;;5043193;28;20025;-59
2023/04/15 11:55:45;;;;;;;10.32;3.88;;;;;;;;;;5038586;28;20065;-58
2023/04/15 11:58:22;;;;;;;5.83;3.23;;;;;;;;;;5032540;28;20037;-58
2023/04/15 12:00:51;;;;;;;7.05;3.53;;;;;;;;;;5032814;28;20033;-60
2023/04/15 12:03:22;;;;;;;9.30;3.80;;;;;;;;;;5037526;28;20028;-58
2023/04/15 12:06:07;;;;;;;10.75;4.10;;;;;;;;;;5031263;28;20041;-59
2023/04/15 12:08:51;;;;;;;12.77;6.32;;;;;;;;;;5037549;28;20049;-58
2023/04/15 12:11:19;;;;;;;7.68;3.95;;;;;;;;;;5039204;28;20026;-58
2023/04/15 12:13:47;;;;;;;8.25;4.20;;;;;;;;;;5041846;28;20045;-59
2023/04/15 12:16:18;;;;;;;8.55;4.45;;;;;;;;;;5038235;28;20036;-59
2023/04/15 12:18:50;;;;;;;8.80;4.22;;;;;;;;;;5042681;28;20033;-58
2023/04/15 12:21:20;;;;;;;9.85;3.90;;;;;;;;;;5036839;28;20040;-58
2023/04/15 12:23:51;;;;;;;7.38;3.92;;;;;;;;;;5033836;28;20041;-58
2023/04/15 12:26:24;;;;;;;8.75;4.10;;;;;;;;;;5039736;28;20033;-59
2023/04/15 12:29:02;;;;;;;7.88;3.97;;;;;;;;;;5041182;28;20048;-59
2023/04/15 12:31:29;;;;;;;8.35;5.47;;;;;;;;;;5038938;28;20044;-58
2023/04/15 12:33:56;;;;;;;7.15;4.50;;;;;;;;;;5041506;28;20049;-58
2023/04/15 12:36:23;;;;;;;6.75;4.55;;;;;;;;;;5033311;28;20026;-58
2023/04/15 12:38:49;;;;;;;5.72;3.85;;;;;;;;;;5031765;28;20040;-58
2023/04/15 12:41:15;;;;;;;8.65;4.60;;;;;;;;;;5032643;28;20048;-58
2023/04/15 12:43:44;;;;;;;8.90;5.82;;;;;;;;;;5037700;28;20040;-59
2023/04/15 12:46:10;;;;;;;8.27;4.38;;;;;;;;;;5036811;28;20040;-59
2023/04/15 12:48:36;;;;;;;9.52;4.25;;;;;;;;;;5032969;28;20048;-59
2023/04/15 12:51:03;;;;;;;8.00;5.18;;;;;;;;;;5034702;28;20044;-60
2023/04/15 12:53:29;;;;;;;8.52;5.80;;;;;;;;;;5032894;28;20033;-60
2023/04/15 12:55:55;;;;;;;8.18;5.25;;;;;;;;;;5035545;28;20036;-60
2023/04/15 12:58:21;;;;;;;10.68;5.15;;;;;;;;;;5038853;28;20060;-59
2023/04/15 13:00:48;;;;;;;8.98;4.78;;;;;;;;;;5031233;28;20396;-59
2023/04/15 13:03:15;;;;;;;7.82;5.95;;;;;;;;;;5032941;28;20041;-58
2023/04/15 13:05:41;;;;;;;9.93;5.22;;;;;;;;;;5038597;28;20037;-58
2023/04/15 13:08:08;;;;;;;8.70;5.50;;;;;;;;;;5045894;28;20048;-58
2023/04/15 13:10:37;;;;;;;6.63;4.40;;;;;;;;;;5039707;28;20048;-58
2023/04/15 13:13:04;;;;;;;7.50;5.50;;;;;;;;;;5034183;28;20049;-59
2023/04/15 13:15:30;;;;;;;12.57;6.93;;;;;;;;;;5030183;28;20041;-59
2023/04/15 13:17:57;;;;;;;5.90;5.30;;;;;;;;;;5035620;28;20487;-59
2023/04/15 13:20:24;;;;;;;9.85;5.75;;;;;;;;;;5043341;28;20037;-59
2023/04/15 13:22:51;;;;;;;10.77;5.90;;;;;;;;;;5042531;28;20069;-59
2023/04/15 13:25:18;;;;;;;6.90;5.22;;;;;;;;;;5038669;28;20527;-59
2023/04/15 13:27:44;;;;;;;7.65;5.70;;;;;;;;;;5044245;28;20037;-59
2023/04/15 13:30:10;;;;;;;8.73;5.43;;;;;;;;;;5042729;28;20060;-59
2023/04/15 13:32:36;;;;;;;7.55;5.22;;;;;;;;;;5039326;28;20029;-59
2023/04/15 13:35:04;;;;;;;7.55;4.80;;;;;;;;;;5038401;28;20045;-60
2023/04/15 13:37:30;;;;;;;6.32;5.05;;;;;;;;;;5037542;28;20585;-58
2023/04/15 13:39:56;;;;;;;8.27;5.03;;;;;;;;;;5037705;28;20040;-59
2023/04/15 13:42:23;;;;;;;13.95;5.90;;;;;;;;;;5032984;28;20045;-59
2023/04/15 13:44:50;;;;;;;8.70;4.90;;;;;;;;;;5035790;28;20045;-58
2023/04/15 13:47:18;;;;;;;10.30;4.97;;;;;;;;;;5042466;28;20053;-58
2023/04/15 13:49:44;;;;;;;21.33;6.78;;;;;;;;;;5039115;28;20171;-57
2023/04/15 13:52:11;;;;;;;9.85;4.68;;;;;;;;;;5036245;28;20055;-57
2023/04/15 13:54:37;;;;;;;6.53;4.63;;;;;;;;;;5040801;28;20528;-58
2023/04/15 13:57:04;;;;;;;6.72;4.75;;;;;;;;;;5042187;28;20050;-58
2023/04/15 13:59:33;;;;;;;5.40;4.30;;;;;;;;;;5042232;28;20040;-59
2023/04/15 14:01:59;;;;;;;6.03;4.55;;;;;;;;;;5034661;28;20033;-58
2023/04/15 14:04:26;;;;;;;6.60;4.10;;;;;;;;;;5034818;28;20053;-59
2023/04/15 14:06:52;;;;;;;5.43;3.60;;;;;;;;;;5037260;28;20033;-57
2023/04/15 14:09:18;;;;;;;7.95;4.32;;;;;;;;;;5041236;28;20044;-58
2023/04/15 14:11:44;;;;;;;8.30;3.80;;;;;;;;;;5041606;28;20052;-59
2023/04/15 14:14:10;;;;;;;6.65;4.40;;;;;;;;;;5040335;28;20052;-58
2023/04/15 14:16:36;;;;;;;6.65;3.95;;;;;;;;;;5041404;28;20076;-58
2023/04/15 14:19:02;;;;;;;5.85;3.67;;;;;;;;;;5041134;28;20055;-59
2023/04/15 14:21:30;;;;;;;6.53;3.67;;;;;;;;;;5033577;28;20046;-57
2023/04/15 14:23:57;;;;;;;6.03;3.20;;;;;;;;;;5042163;28;20041;-57
2023/04/15 14:26:23;;;;;;;7.03;3.30;;;;;;;;;;5038654;28;20498;-57
2023/04/15 14:28:50;;;;;;;6.35;3.40;;;;;;;;;;5045329;28;20034;-57
2023/04/15 14:31:18;;;;;;;7.75;2.70;;;;;;;;;;5033881;28;20034;-56
2023/04/15 14:33:45;;;;;;;7.38;2.60;;;;;;;;;;5041407;28;20033;-56
2023/04/15 14:36:11;;;;;;;4.63;2.80;;;;;;;;;;5038340;28;20514;-57
2023/04/15 14:38:38;;;;;;;3.47;2.55;;;;;;;;;;5037635;28;20038;-58
2023/04/15 14:41:08;;;;;;;5.00;2.58;;;;;;;;;;5037481;28;20036;-58
2023/04/15 14:43:35;;;;;;;6.82;3.00;;;;;;;;;;5042818;28;20032;-59
2023/04/15 14:46:01;;;;;;;4.40;2.80;;;;;;;;;;5038902;28;20050;-58
2023/04/15 14:48:27;;;;;;;6.53;3.30;;;;;;;;;;5032903;28;20033;-57